createdAt,value
2022-09-25T00:02:21.475Z,16.00
2022-09-25T00:05:12.244Z,16.10
2022-09-25T00:08:00.537Z,16.10
2022-09-25T00:10:52.503Z,16.10
2022-09-25T00:13:41.180Z,16.10
2022-09-25T00:16:32.322Z,16.00
2022-09-25T00:19:40.087Z,16.00
2022-09-25T00:22:30.359Z,16.10
2022-09-25T00:25:18.985Z,16.10
2022-09-25T00:28:07.601Z,16.10
2022-09-25T00:30:56.148Z,16.00
2022-09-25T00:33:44.869Z,16.10
2022-09-25T00:36:34.033Z,16.00
2022-09-25T00:39:23.624Z,16.10
2022-09-25T00:42:14.356Z,16.10
2022-09-25T00:45:03.132Z,16.10
2022-09-25T00:47:57.656Z,16.10
2022-09-25T00:50:51.042Z,16.10
2022-09-25T00:53:41.336Z,16.10
2022-09-25T00:56:36.168Z,16.10
2022-09-25T00:59:28.974Z,16.10
2022-09-25T01:02:25.186Z,16.10
2022-09-25T01:05:16.244Z,16.10
2022-09-25T01:08:07.815Z,16.00
2022-09-25T01:10:55.930Z,16.10
2022-09-25T01:13:45.899Z,16.10
2022-09-25T01:16:41.474Z,16.10
2022-09-25T01:19:44.465Z,16.10
2022-09-25T01:22:47.602Z,16.10
2022-09-25T01:25:49.023Z,16.10
2022-09-25T01:29:03.041Z,16.10
2022-09-25T01:32:03.273Z,16.10
2022-09-25T01:34:57.805Z,16.10
2022-09-25T01:37:50.929Z,16.10
2022-09-25T01:40:44.249Z,16.10
2022-09-25T01:43:38.237Z,16.10
2022-09-25T01:46:32.184Z,16.10
2022-09-25T01:49:26.371Z,16.10
2022-09-25T01:52:18.802Z,16.10
2022-09-25T01:55:12.787Z,16.10
2022-09-25T01:58:08.131Z,16.10
2022-09-25T02:01:01.042Z,16.10
2022-09-25T02:03:56.431Z,16.10
2022-09-25T02:06:48.990Z,16.10
2022-09-25T02:09:42.771Z,16.10
2022-09-25T02:12:36.976Z,16.10
2022-09-25T02:15:30.869Z,16.10
2022-09-25T02:18:38.390Z,16.10
2022-09-25T02:21:36.110Z,16.10
2022-09-25T02:24:30.774Z,16.20
2022-09-25T02:27:20.508Z,16.10
2022-09-25T02:30:11.791Z,16.10
2022-09-25T02:32:59.835Z,16.10
2022-09-25T02:35:48.702Z,16.10
2022-09-25T02:38:38.192Z,16.10
2022-09-25T02:41:40.551Z,16.10
2022-09-25T02:44:38.449Z,16.10
2022-09-25T02:47:36.816Z,16.10
2022-09-25T02:50:29.863Z,16.10
2022-09-25T02:53:23.499Z,16.10
2022-09-25T02:56:17.559Z,16.10
2022-09-25T02:59:10.865Z,16.10
2022-09-25T03:02:00.871Z,16.10
2022-09-25T03:04:52.150Z,16.10
2022-09-25T03:07:54.526Z,16.10
2022-09-25T03:10:46.371Z,16.10
2022-09-25T03:13:36.451Z,16.10
2022-09-25T03:16:33.837Z,16.10
2022-09-25T03:19:22.021Z,16.10
2022-09-25T03:22:10.340Z,16.10
2022-09-25T03:24:58.454Z,16.10
2022-09-25T03:27:48.835Z,16.10
2022-09-25T03:30:41.098Z,16.10
2022-09-25T03:33:31.339Z,16.10
2022-09-25T03:36:21.411Z,16.10
2022-09-25T03:39:11.203Z,16.10
2022-09-25T03:41:59.164Z,16.10
2022-09-25T03:44:47.662Z,16.10
2022-09-25T03:47:37.458Z,16.10
2022-09-25T03:50:26.515Z,16.10
2022-09-25T03:53:14.472Z,16.10
2022-09-25T03:56:04.490Z,16.10
2022-09-25T03:58:54.320Z,16.10
2022-09-25T04:01:42.923Z,16.10
2022-09-25T04:04:33.302Z,16.10
2022-09-25T04:07:21.703Z,16.10
2022-09-25T04:10:10.683Z,16.10
2022-09-25T04:12:59.280Z,16.10
2022-09-25T04:15:47.536Z,16.10
2022-09-25T04:18:36.179Z,16.10
2022-09-25T04:21:25.860Z,16.10
2022-09-25T04:24:32.074Z,16.10
2022-09-25T04:27:22.523Z,16.10
2022-09-25T04:30:12.089Z,16.10
2022-09-25T04:33:17.756Z,16.10
2022-09-25T04:36:07.604Z,16.10
2022-09-25T04:38:56.885Z,16.10
2022-09-25T04:41:45.232Z,16.10
2022-09-25T04:44:33.481Z,16.10
2022-09-25T04:47:22.799Z,16.10
2022-09-25T04:50:11.003Z,16.10
2022-09-25T04:53:00.692Z,16.10
2022-09-25T04:55:50.251Z,16.10
2022-09-25T04:58:39.214Z,16.10
2022-09-25T05:01:27.881Z,16.10
2022-09-25T05:04:17.511Z,16.10
2022-09-25T05:07:05.813Z,16.20
2022-09-25T05:09:54.339Z,16.20
2022-09-25T05:12:44.164Z,16.20
2022-09-25T05:15:34.545Z,16.20
2022-09-25T05:18:24.731Z,16.30
2022-09-25T05:21:13.318Z,16.30
2022-09-25T05:24:01.506Z,16.30
2022-09-25T05:26:49.931Z,16.50
2022-09-25T05:29:41.197Z,16.50
2022-09-25T05:32:31.188Z,16.40
2022-09-25T05:35:20.135Z,16.40
2022-09-25T05:38:09.240Z,16.30
2022-09-25T05:41:03.098Z,16.20
2022-09-25T05:43:51.459Z,16.10
2022-09-25T05:46:41.510Z,16.00
2022-09-25T05:49:29.952Z,15.90
2022-09-25T05:52:18.288Z,15.90
2022-09-25T05:55:08.422Z,15.80
2022-09-25T05:58:01.417Z,15.80
2022-09-25T06:00:50.657Z,15.80
2022-09-25T06:03:40.357Z,15.70
2022-09-25T06:06:32.093Z,15.80
2022-09-25T06:09:19.827Z,15.80
2022-09-25T06:12:08.119Z,15.90
2022-09-25T06:14:56.268Z,15.90
2022-09-25T06:17:45.152Z,15.90
2022-09-25T06:20:35.399Z,16.00
2022-09-25T06:23:23.751Z,16.00
2022-09-25T06:26:12.676Z,16.00
2022-09-25T06:29:03.269Z,16.10
2022-09-25T06:31:53.700Z,16.10
2022-09-25T06:34:41.955Z,16.10
2022-09-25T06:37:31.732Z,16.10
2022-09-25T06:40:20.357Z,16.20
2022-09-25T06:43:11.991Z,16.20
2022-09-25T06:46:03.936Z,16.20
2022-09-25T06:48:54.460Z,16.20
2022-09-25T06:51:42.881Z,16.20
2022-09-25T06:54:33.264Z,16.20
2022-09-25T06:57:21.899Z,16.30
2022-09-25T07:00:11.306Z,16.30
2022-09-25T07:03:17.263Z,16.40
2022-09-25T07:06:07.574Z,16.40
2022-09-25T07:08:57.364Z,16.40
2022-09-25T07:11:48.729Z,16.40
2022-09-25T07:14:36.907Z,16.50
2022-09-25T07:17:25.235Z,16.50
2022-09-25T07:20:15.666Z,16.50
2022-09-25T07:23:04.351Z,16.40
2022-09-25T07:25:53.151Z,16.40
2022-09-25T07:28:43.994Z,16.40
2022-09-25T07:31:34.213Z,16.40
2022-09-25T07:34:22.395Z,16.30
2022-09-25T07:37:11.722Z,16.30
2022-09-25T07:39:59.721Z,16.30
2022-09-25T07:42:48.088Z,16.30
2022-09-25T07:45:37.538Z,16.30
2022-09-25T07:48:27.351Z,16.30
2022-09-25T07:51:15.796Z,16.40
2022-09-25T07:54:04.633Z,16.40
2022-09-25T07:56:53.134Z,16.40
2022-09-25T07:59:41.383Z,16.40
2022-09-25T08:02:30.984Z,16.40
2022-09-25T08:05:19.939Z,16.40
2022-09-25T08:08:08.381Z,16.40
2022-09-25T08:11:02.794Z,16.30
2022-09-25T08:13:51.486Z,16.30
2022-09-25T08:16:41.149Z,16.30
2022-09-25T08:19:31.147Z,16.30
2022-09-25T08:22:19.834Z,16.20
2022-09-25T08:25:08.893Z,16.20
2022-09-25T08:27:57.082Z,16.20
2022-09-25T08:30:45.576Z,16.20
2022-09-25T08:33:34.683Z,16.10
2022-09-25T08:36:24.507Z,16.20
2022-09-25T08:39:13.115Z,16.20
2022-09-25T08:42:02.070Z,16.30
2022-09-25T08:45:21.525Z,16.30
2022-09-25T08:48:33.829Z,16.30
2022-09-25T08:51:23.977Z,16.30
2022-09-25T08:54:18.565Z,16.30
2022-09-25T08:57:17.615Z,16.30
2022-09-25T09:00:09.343Z,16.30
2022-09-25T09:02:59.966Z,16.30
2022-09-25T09:05:58.752Z,16.40
2022-09-25T09:09:00.322Z,16.40
2022-09-25T09:11:52.546Z,16.40
2022-09-25T09:14:46.399Z,16.40
2022-09-25T09:17:42.519Z,16.30
2022-09-25T09:20:39.226Z,16.40
2022-09-25T09:23:35.443Z,16.40
2022-09-25T09:26:33.364Z,16.40
2022-09-25T09:29:34.826Z,16.40
2022-09-25T09:32:28.406Z,16.50
2022-09-25T09:35:31.248Z,16.50
2022-09-25T09:38:29.872Z,16.50
2022-09-25T09:41:31.008Z,16.40
2022-09-25T09:44:35.018Z,16.50
2022-09-25T09:47:41.503Z,16.50
2022-09-25T09:50:43.247Z,16.60
2022-09-25T09:53:39.875Z,16.60
2022-09-25T09:56:32.463Z,16.60
2022-09-25T09:59:23.959Z,16.60
2022-09-25T10:02:29.198Z,16.60
2022-09-25T10:05:24.783Z,16.60
2022-09-25T10:08:13.962Z,16.60
2022-09-25T10:11:06.786Z,16.70
2022-09-25T10:14:00.027Z,16.70
2022-09-25T10:16:50.563Z,16.70
2022-09-25T10:19:48.276Z,16.60
2022-09-25T10:22:39.770Z,16.70
2022-09-25T10:25:38.345Z,16.60
2022-09-25T10:28:31.394Z,16.70
2022-09-25T10:31:22.488Z,16.70
2022-09-25T10:34:22.212Z,16.70
2022-09-25T10:37:22.026Z,16.70
2022-09-25T10:40:27.227Z,16.70
2022-09-25T10:43:23.763Z,16.70
2022-09-25T10:46:15.804Z,16.80
2022-09-25T10:49:35.012Z,16.80
2022-09-25T10:52:23.199Z,16.80
2022-09-25T10:55:20.940Z,16.80
2022-09-25T10:58:15.790Z,16.80
2022-09-25T11:01:06.177Z,16.80
2022-09-25T11:03:57.160Z,16.80
2022-09-25T11:06:49.824Z,16.80
2022-09-25T11:09:44.220Z,16.80
2022-09-25T11:12:33.868Z,16.80
2022-09-25T11:15:24.954Z,16.80
2022-09-25T11:18:36.191Z,16.80
2022-09-25T11:21:31.626Z,16.80
2022-09-25T11:24:27.974Z,16.80
2022-09-25T11:27:21.655Z,16.80
2022-09-25T11:30:14.456Z,16.80
2022-09-25T11:33:08.432Z,16.80
2022-09-25T11:36:02.033Z,16.80
2022-09-25T11:39:12.346Z,16.80
2022-09-25T11:42:06.431Z,16.80
2022-09-25T11:45:04.979Z,16.80
2022-09-25T11:47:58.911Z,16.90
2022-09-25T11:50:54.166Z,16.90
2022-09-25T11:53:50.323Z,16.90
2022-09-25T11:56:43.037Z,16.90
2022-09-25T11:59:44.401Z,17.00
2022-09-25T12:02:41.001Z,17.00
2022-09-25T12:05:48.304Z,17.00
2022-09-25T12:08:50.584Z,16.90
2022-09-25T12:11:49.908Z,16.90
2022-09-25T12:14:47.215Z,16.90
2022-09-25T12:17:43.474Z,16.90
2022-09-25T12:20:38.902Z,16.90
2022-09-25T12:23:32.713Z,16.90
2022-09-25T12:26:31.078Z,16.90
2022-09-25T12:29:32.605Z,16.90
2022-09-25T12:32:32.285Z,16.90
2022-09-25T12:35:34.073Z,17.00
2022-09-25T12:38:31.398Z,16.90
2022-09-25T12:41:28.876Z,16.90
2022-09-25T12:44:27.275Z,16.90
2022-09-25T12:47:23.860Z,16.90
2022-09-25T12:50:17.750Z,16.90
2022-09-25T12:53:19.019Z,16.90
2022-09-25T12:56:13.726Z,16.90
2022-09-25T12:59:11.326Z,16.90
2022-09-25T13:02:06.036Z,16.90
2022-09-25T13:05:06.355Z,16.90
2022-09-25T13:08:00.468Z,16.90
2022-09-25T13:10:53.615Z,16.90
2022-09-25T13:13:45.717Z,16.90
2022-09-25T13:16:35.602Z,16.90
2022-09-25T13:19:28.857Z,16.90
2022-09-25T13:22:22.096Z,16.90
2022-09-25T13:25:15.983Z,16.80
2022-09-25T13:28:09.410Z,16.70
2022-09-25T13:31:09.363Z,16.80
2022-09-25T13:34:05.643Z,16.70
2022-09-25T13:36:55.306Z,16.80
2022-09-25T13:40:04.199Z,16.70
2022-09-25T13:42:55.647Z,16.80
2022-09-25T13:45:44.202Z,16.80
2022-09-25T13:48:36.197Z,16.80
2022-09-25T13:51:35.818Z,16.70
2022-09-25T13:54:28.635Z,16.70
2022-09-25T13:57:17.439Z,16.50
2022-09-25T14:00:16.610Z,16.60
2022-09-25T14:03:06.501Z,16.60
2022-09-25T14:05:54.782Z,16.60
2022-09-25T14:08:44.889Z,16.50
2022-09-25T14:11:35.283Z,16.60
2022-09-25T14:14:28.449Z,16.60
2022-09-25T14:17:18.130Z,16.60
2022-09-25T14:20:18.988Z,16.60
2022-09-25T14:23:14.284Z,16.50
2022-09-25T14:26:06.236Z,16.50
2022-09-25T14:28:55.442Z,16.50
2022-09-25T14:31:52.277Z,16.50
2022-09-25T14:34:58.467Z,16.50
2022-09-25T14:37:59.451Z,16.50
2022-09-25T14:41:06.106Z,16.50
2022-09-25T14:44:18.375Z,16.50
2022-09-25T14:47:08.571Z,16.50
2022-09-25T14:49:59.587Z,16.50
2022-09-25T14:52:50.578Z,16.40
2022-09-25T14:55:46.615Z,16.40
2022-09-25T14:58:35.153Z,16.40
2022-09-25T15:01:27.838Z,16.40
2022-09-25T15:04:27.462Z,16.40
2022-09-25T15:07:20.936Z,16.40
2022-09-25T15:10:28.697Z,16.30
2022-09-25T15:13:18.668Z,16.30
2022-09-25T15:16:26.342Z,16.30
2022-09-25T15:19:20.788Z,16.30
2022-09-25T15:22:11.351Z,16.30
2022-09-25T15:25:04.270Z,16.20
2022-09-25T15:27:52.311Z,16.20
2022-09-25T15:30:42.401Z,16.20
2022-09-25T15:33:32.245Z,16.20
2022-09-25T15:36:24.379Z,16.20
2022-09-25T15:39:15.208Z,16.20
2022-09-25T15:42:07.479Z,16.20
2022-09-25T15:44:58.561Z,16.20
2022-09-25T15:47:51.935Z,16.20
2022-09-25T15:50:44.719Z,16.10
2022-09-25T15:53:36.278Z,16.10
2022-09-25T15:56:26.586Z,16.10
2022-09-25T15:59:20.631Z,16.10
2022-09-25T16:02:36.351Z,16.10
2022-09-25T16:05:30.180Z,16.20
2022-09-25T16:08:29.403Z,16.20
2022-09-25T16:11:22.727Z,16.20
2022-09-25T16:14:30.326Z,16.20
2022-09-25T16:17:25.001Z,16.10
2022-09-25T16:20:31.278Z,16.20
2022-09-25T16:23:28.539Z,16.20
2022-09-25T16:26:22.170Z,16.20
2022-09-25T16:29:22.703Z,16.20
2022-09-25T16:32:19.326Z,16.20
2022-09-25T16:35:08.412Z,16.20
2022-09-25T16:37:56.588Z,16.20
2022-09-25T16:41:02.788Z,16.30
2022-09-25T16:44:14.227Z,16.30
2022-09-25T16:47:13.184Z,16.30
2022-09-25T16:50:02.827Z,16.30
2022-09-25T16:52:52.124Z,16.30
2022-09-25T16:55:53.242Z,16.30
2022-09-25T16:58:41.600Z,16.30
2022-09-25T17:01:30.417Z,16.30
2022-09-25T17:04:20.744Z,16.30
2022-09-25T17:07:11.844Z,16.30
2022-09-25T17:10:01.750Z,16.40
2022-09-25T17:12:53.763Z,16.40
2022-09-25T17:15:43.401Z,16.40
2022-09-25T17:18:31.778Z,16.40
2022-09-25T17:21:20.662Z,16.40
2022-09-25T17:24:12.499Z,16.40
2022-09-25T17:27:02.344Z,16.30
2022-09-25T17:29:51.737Z,16.40
2022-09-25T17:32:44.109Z,16.40
2022-09-25T17:35:41.291Z,16.30
2022-09-25T17:38:32.516Z,16.40
2022-09-25T17:41:27.551Z,16.30
2022-09-25T17:44:19.606Z,16.40
2022-09-25T17:47:09.668Z,16.40
2022-09-25T17:49:59.564Z,16.40
2022-09-25T17:52:47.580Z,16.40
2022-09-25T17:55:36.504Z,16.40
2022-09-25T17:58:27.632Z,16.40
2022-09-25T18:01:22.184Z,16.40
2022-09-25T18:04:19.412Z,16.40
2022-09-25T18:07:08.132Z,16.40
2022-09-25T18:09:56.382Z,16.40
2022-09-25T18:12:45.364Z,16.40
2022-09-25T18:15:37.410Z,16.40
2022-09-25T18:18:46.267Z,16.40
2022-09-25T18:21:51.984Z,16.40
2022-09-25T18:24:41.447Z,16.40
2022-09-25T18:27:33.099Z,16.40
2022-09-25T18:30:24.722Z,16.40
2022-09-25T18:33:14.196Z,16.40
2022-09-25T18:36:02.942Z,16.40
2022-09-25T18:38:50.986Z,16.40
2022-09-25T18:41:40.705Z,16.40
2022-09-25T18:44:28.974Z,16.40
2022-09-25T18:47:17.376Z,16.40
2022-09-25T18:50:07.855Z,16.40
2022-09-25T18:52:56.763Z,16.40
2022-09-25T18:55:44.859Z,16.40
2022-09-25T18:58:33.866Z,16.40
2022-09-25T19:01:22.012Z,16.40
2022-09-25T19:04:16.012Z,16.40
2022-09-25T19:07:05.481Z,16.50
2022-09-25T19:09:54.182Z,16.50
2022-09-25T19:12:42.252Z,16.40
2022-09-25T19:15:31.148Z,16.40
2022-09-25T19:18:19.239Z,16.40
2022-09-25T19:21:08.340Z,16.40
2022-09-25T19:23:58.431Z,16.50
2022-09-25T19:26:48.253Z,16.50
2022-09-25T19:29:36.284Z,16.50
2022-09-25T19:32:25.580Z,16.40
2022-09-25T19:35:14.041Z,16.40
2022-09-25T19:38:02.565Z,16.40
2022-09-25T19:40:52.673Z,16.40
2022-09-25T19:43:41.742Z,16.50
2022-09-25T19:46:31.890Z,16.40
2022-09-25T19:49:20.781Z,16.40
2022-09-25T19:52:09.187Z,16.50
2022-09-25T19:54:57.747Z,16.40
2022-09-25T19:57:48.237Z,16.40
2022-09-25T20:00:37.111Z,16.40
2022-09-25T20:03:25.419Z,16.40
2022-09-25T20:06:15.210Z,16.40
2022-09-25T20:09:04.036Z,16.40
2022-09-25T20:11:52.222Z,16.40
2022-09-25T20:14:41.780Z,16.40
2022-09-25T20:17:30.251Z,16.40
2022-09-25T20:20:18.904Z,16.40
2022-09-25T20:23:08.644Z,16.40
2022-09-25T20:26:08.352Z,16.40
2022-09-25T20:28:59.929Z,16.40
2022-09-25T20:31:49.350Z,16.40
2022-09-25T20:34:38.107Z,16.40
2022-09-25T20:37:26.197Z,16.40
2022-09-25T20:40:15.350Z,16.40
2022-09-25T20:43:03.407Z,16.40
2022-09-25T20:45:57.960Z,16.40
2022-09-25T20:48:50.424Z,16.40
2022-09-25T20:51:40.370Z,16.40
2022-09-25T20:54:28.608Z,16.40
2022-09-25T20:57:17.453Z,16.40
2022-09-25T21:00:06.113Z,16.40
2022-09-25T21:02:55.865Z,16.40
2022-09-25T21:05:46.709Z,16.40
2022-09-25T21:08:35.866Z,16.40
2022-09-25T21:11:25.511Z,16.40
2022-09-25T21:14:19.720Z,16.40
2022-09-25T21:17:07.875Z,16.40
2022-09-25T21:19:56.103Z,16.40
2022-09-25T21:22:45.356Z,16.40
2022-09-25T21:25:35.211Z,16.40
2022-09-25T21:28:23.542Z,16.40
2022-09-25T21:31:14.659Z,16.40
2022-09-25T21:34:03.531Z,16.50
2022-09-25T21:36:51.898Z,16.40
2022-09-25T21:39:41.390Z,16.40
2022-09-25T21:42:30.909Z,16.40
2022-09-25T21:45:19.154Z,16.40
2022-09-25T21:48:07.854Z,16.50
2022-09-25T21:50:58.164Z,16.40
2022-09-25T21:53:47.272Z,16.40
2022-09-25T21:56:36.579Z,16.50
2022-09-25T21:59:25.251Z,16.40
2022-09-25T22:02:13.382Z,16.50
2022-09-25T22:05:01.903Z,16.50
2022-09-25T22:07:50.194Z,16.50
2022-09-25T22:10:38.523Z,16.50
2022-09-25T22:13:29.909Z,16.50
2022-09-25T22:16:20.460Z,16.50
2022-09-25T22:19:11.248Z,16.50
2022-09-25T22:22:00.160Z,16.50
2022-09-25T22:24:48.515Z,16.50
2022-09-25T22:27:36.926Z,16.40
2022-09-25T22:30:26.900Z,16.50
2022-09-25T22:33:15.943Z,16.50
2022-09-25T22:36:05.927Z,16.40
2022-09-25T22:38:55.485Z,16.50
2022-09-25T22:41:44.084Z,16.50
2022-09-25T22:44:33.165Z,16.50
2022-09-25T22:47:22.484Z,16.50
2022-09-25T22:50:11.648Z,16.50
2022-09-25T22:53:00.035Z,16.50
2022-09-25T22:55:49.045Z,16.50
2022-09-25T22:58:37.043Z,16.50
2022-09-25T23:01:28.900Z,16.50
2022-09-25T23:04:20.805Z,16.50
2022-09-25T23:07:09.378Z,16.50
2022-09-25T23:09:57.764Z,16.50
2022-09-25T23:12:46.152Z,16.50
2022-09-25T23:15:34.506Z,16.50
2022-09-25T23:18:22.792Z,16.50
2022-09-25T23:21:12.548Z,16.50
2022-09-25T23:24:03.064Z,16.50
2022-09-25T23:26:51.660Z,16.50
2022-09-25T23:29:40.449Z,16.50
2022-09-25T23:32:28.302Z,16.50
2022-09-25T23:35:17.393Z,16.50
2022-09-25T23:38:07.438Z,16.50
2022-09-25T23:40:56.096Z,16.50
2022-09-25T23:43:44.844Z,16.50
2022-09-25T23:46:36.237Z,16.50
2022-09-25T23:49:23.957Z,16.50
2022-09-25T23:52:12.606Z,16.50
2022-09-25T23:55:02.017Z,16.50
2022-09-25T23:57:50.712Z,16.50
